sensor_id;sensor_type;location;lat;lon;timestamp;P1;durP1;ratioP1;P2;durP2;ratioP2
51228;SDS011;37304;52.216;6.874;2022-09-29T00:03:07;9.30;;;6.30;;
51228;SDS011;37304;52.216;6.874;2022-09-29T00:08:07;8.97;;;5.93;;
51228;SDS011;37304;52.216;6.874;2022-09-29T00:13:08;13.02;;;6.38;;
51228;SDS011;37304;52.216;6.874;2022-09-29T00:18:08;12.30;;;6.77;;
51228;SDS011;37304;52.216;6.874;2022-09-29T00:23:10;11.10;;;6.47;;
51228;SDS011;37304;52.216;6.874;2022-09-29T00:28:10;13.07;;;6.87;;
51228;SDS011;37304;52.216;6.874;2022-09-29T00:33:10;12.30;;;7.43;;
51228;SDS011;37304;52.216;6.874;2022-09-29T00:38:11;12.80;;;8.37;;
51228;SDS011;37304;52.216;6.874;2022-09-29T00:43:11;12.90;;;8.20;;
51228;SDS011;37304;52.216;6.874;2022-09-29T00:48:22;13.48;;;7.15;;
51228;SDS011;37304;52.216;6.874;2022-09-29T00:53:30;12.15;;;7.05;;
51228;SDS011;37304;52.216;6.874;2022-09-29T00:58:32;12.73;;;7.68;;
51228;SDS011;37304;52.216;6.874;2022-09-29T01:03:40;10.82;;;7.80;;
51228;SDS011;37304;52.216;6.874;2022-09-29T01:08:46;12.23;;;8.32;;
51228;SDS011;37304;52.216;6.874;2022-09-29T01:13:51;12.95;;;7.90;;
51228;SDS011;37304;52.216;6.874;2022-09-29T01:18:53;16.02;;;8.10;;
51228;SDS011;37304;52.216;6.874;2022-09-29T01:29:54;14.20;;;8.50;;
51228;SDS011;37304;52.216;6.874;2022-09-29T01:45:41;15.35;;;8.75;;
51228;SDS011;37304;52.216;6.874;2022-09-29T01:50:49;21.05;;;10.43;;
51228;SDS011;37304;52.216;6.874;2022-09-29T01:55:55;16.25;;;10.00;;
51228;SDS011;37304;52.216;6.874;2022-09-29T02:01:01;20.70;;;10.10;;
51228;SDS011;37304;52.216;6.874;2022-09-29T02:06:10;17.60;;;10.40;;
51228;SDS011;37304;52.216;6.874;2022-09-29T02:11:14;20.42;;;10.57;;
51228;SDS011;37304;52.216;6.874;2022-09-29T02:16:16;17.27;;;9.02;;
51228;SDS011;37304;52.216;6.874;2022-09-29T02:21:20;17.80;;;9.68;;
51228;SDS011;37304;52.216;6.874;2022-09-29T02:26:22;18.33;;;9.98;;
51228;SDS011;37304;52.216;6.874;2022-09-29T02:31:24;15.05;;;9.60;;
51228;SDS011;37304;52.216;6.874;2022-09-29T02:36:43;17.25;;;10.10;;
51228;SDS011;37304;52.216;6.874;2022-09-29T02:47:44;16.50;;;9.15;;
51228;SDS011;37304;52.216;6.874;2022-09-29T02:58:37;17.13;;;9.82;;
51228;SDS011;37304;52.216;6.874;2022-09-29T03:03:46;17.83;;;9.93;;
51228;SDS011;37304;52.216;6.874;2022-09-29T03:08:46;20.70;;;11.07;;
51228;SDS011;37304;52.216;6.874;2022-09-29T03:13:46;22.57;;;10.73;;
51228;SDS011;37304;52.216;6.874;2022-09-29T03:18:47;15.97;;;9.80;;
51228;SDS011;37304;52.216;6.874;2022-09-29T03:23:47;15.13;;;9.35;;
51228;SDS011;37304;52.216;6.874;2022-09-29T03:28:47;16.40;;;9.77;;
51228;SDS011;37304;52.216;6.874;2022-09-29T03:33:48;16.57;;;9.73;;
51228;SDS011;37304;52.216;6.874;2022-09-29T03:38:48;15.65;;;9.70;;
51228;SDS011;37304;52.216;6.874;2022-09-29T03:43:48;14.53;;;8.70;;
51228;SDS011;37304;52.216;6.874;2022-09-29T03:48:49;19.80;;;10.43;;
51228;SDS011;37304;52.216;6.874;2022-09-29T03:53:49;21.17;;;11.17;;
51228;SDS011;37304;52.216;6.874;2022-09-29T03:58:49;19.77;;;10.37;;
51228;SDS011;37304;52.216;6.874;2022-09-29T04:03:50;18.03;;;10.13;;
51228;SDS011;37304;52.216;6.874;2022-09-29T04:08:50;20.07;;;10.50;;
51228;SDS011;37304;52.216;6.874;2022-09-29T04:13:50;17.45;;;9.63;;
51228;SDS011;37304;52.216;6.874;2022-09-29T04:18:51;19.98;;;10.30;;
51228;SDS011;37304;52.216;6.874;2022-09-29T04:23:51;17.97;;;10.20;;
51228;SDS011;37304;52.216;6.874;2022-09-29T04:28:52;21.20;;;10.57;;
51228;SDS011;37304;52.216;6.874;2022-09-29T04:33:52;18.33;;;10.90;;
51228;SDS011;37304;52.216;6.874;2022-09-29T04:38:52;15.33;;;9.40;;
51228;SDS011;37304;52.216;6.874;2022-09-29T04:43:53;16.35;;;9.20;;
51228;SDS011;37304;52.216;6.874;2022-09-29T04:48:53;22.08;;;9.50;;
51228;SDS011;37304;52.216;6.874;2022-09-29T04:53:54;19.47;;;11.33;;
51228;SDS011;37304;52.216;6.874;2022-09-29T04:58:54;18.00;;;10.53;;
51228;SDS011;37304;52.216;6.874;2022-09-29T05:03:55;19.10;;;10.95;;
51228;SDS011;37304;52.216;6.874;2022-09-29T05:08:55;17.65;;;10.40;;
51228;SDS011;37304;52.216;6.874;2022-09-29T05:13:55;17.97;;;9.73;;
51228;SDS011;37304;52.216;6.874;2022-09-29T05:18:56;20.15;;;10.02;;
51228;SDS011;37304;52.216;6.874;2022-09-29T05:23:57;17.33;;;9.53;;
51228;SDS011;37304;52.216;6.874;2022-09-29T05:28:57;20.17;;;10.57;;
51228;SDS011;37304;52.216;6.874;2022-09-29T05:33:57;18.87;;;10.20;;
51228;SDS011;37304;52.216;6.874;2022-09-29T05:38:58;19.30;;;10.80;;
51228;SDS011;37304;52.216;6.874;2022-09-29T05:43:58;19.27;;;10.20;;
51228;SDS011;37304;52.216;6.874;2022-09-29T05:49:00;18.08;;;10.50;;
51228;SDS011;37304;52.216;6.874;2022-09-29T05:54:00;23.93;;;12.40;;
51228;SDS011;37304;52.216;6.874;2022-09-29T05:59:01;22.23;;;11.57;;
51228;SDS011;37304;52.216;6.874;2022-09-29T06:04:01;20.33;;;11.80;;
51228;SDS011;37304;52.216;6.874;2022-09-29T06:09:02;19.42;;;11.02;;
51228;SDS011;37304;52.216;6.874;2022-09-29T06:14:02;17.20;;;9.93;;
51228;SDS011;37304;52.216;6.874;2022-09-29T06:19:03;19.23;;;10.07;;
51228;SDS011;37304;52.216;6.874;2022-09-29T06:24:04;20.77;;;10.20;;
51228;SDS011;37304;52.216;6.874;2022-09-29T06:29:06;17.73;;;9.98;;
51228;SDS011;37304;52.216;6.874;2022-09-29T06:34:07;19.87;;;12.33;;
51228;SDS011;37304;52.216;6.874;2022-09-29T06:39:10;21.35;;;10.68;;
51228;SDS011;37304;52.216;6.874;2022-09-29T06:44:13;21.08;;;10.93;;
51228;SDS011;37304;52.216;6.874;2022-09-29T06:54:16;20.40;;;11.63;;
51228;SDS011;37304;52.216;6.874;2022-09-29T06:59:17;20.92;;;11.65;;
51228;SDS011;37304;52.216;6.874;2022-09-29T07:04:18;20.80;;;12.30;;
51228;SDS011;37304;52.216;6.874;2022-09-29T07:09:19;21.83;;;12.80;;
51228;SDS011;37304;52.216;6.874;2022-09-29T07:14:21;19.73;;;10.97;;
51228;SDS011;37304;52.216;6.874;2022-09-29T07:19:22;21.00;;;10.63;;
51228;SDS011;37304;52.216;6.874;2022-09-29T07:24:22;23.37;;;12.23;;
51228;SDS011;37304;52.216;6.874;2022-09-29T07:29:23;24.17;;;12.05;;
51228;SDS011;37304;52.216;6.874;2022-09-29T07:34:24;21.27;;;12.23;;
51228;SDS011;37304;52.216;6.874;2022-09-29T07:39:24;20.70;;;11.57;;
51228;SDS011;37304;52.216;6.874;2022-09-29T07:44:25;19.47;;;11.63;;
51228;SDS011;37304;52.216;6.874;2022-09-29T07:49:25;20.70;;;11.63;;
51228;SDS011;37304;52.216;6.874;2022-09-29T07:54:25;20.13;;;12.17;;
51228;SDS011;37304;52.216;6.874;2022-09-29T07:59:26;18.67;;;10.43;;
51228;SDS011;37304;52.216;6.874;2022-09-29T08:04:26;17.88;;;10.75;;
51228;SDS011;37304;52.216;6.874;2022-09-29T08:14:27;19.83;;;9.95;;
51228;SDS011;37304;52.216;6.874;2022-09-29T08:24:27;19.85;;;11.50;;
51228;SDS011;37304;52.216;6.874;2022-09-29T08:29:29;18.33;;;10.18;;
51228;SDS011;37304;52.216;6.874;2022-09-29T08:39:29;18.38;;;11.18;;
51228;SDS011;37304;52.216;6.874;2022-09-29T08:44:35;15.77;;;9.55;;
51228;SDS011;37304;52.216;6.874;2022-09-29T08:49:59;16.58;;;10.52;;
51228;SDS011;37304;52.216;6.874;2022-09-29T09:00:17;13.50;;;9.15;;
51228;SDS011;37304;52.216;6.874;2022-09-29T09:10:42;15.73;;;8.50;;
51228;SDS011;37304;52.216;6.874;2022-09-29T09:15:55;11.50;;;8.32;;
51228;SDS011;37304;52.216;6.874;2022-09-29T09:21:18;10.48;;;7.40;;
51228;SDS011;37304;52.216;6.874;2022-09-29T09:26:39;10.68;;;7.43;;
51228;SDS011;37304;52.216;6.874;2022-09-29T09:31:56;10.15;;;7.57;;
51228;SDS011;37304;52.216;6.874;2022-09-29T09:37:05;11.23;;;8.45;;
51228;SDS011;37304;52.216;6.874;2022-09-29T09:42:13;8.85;;;6.47;;
51228;SDS011;37304;52.216;6.874;2022-09-29T09:47:27;11.35;;;8.07;;
51228;SDS011;37304;52.216;6.874;2022-09-29T09:52:40;9.43;;;7.43;;
51228;SDS011;37304;52.216;6.874;2022-09-29T10:03:06;11.23;;;8.07;;
51228;SDS011;37304;52.216;6.874;2022-09-29T10:08:09;8.52;;;6.78;;
51228;SDS011;37304;52.216;6.874;2022-09-29T10:13:17;11.40;;;7.07;;
51228;SDS011;37304;52.216;6.874;2022-09-29T10:18:22;8.73;;;6.70;;
51228;SDS011;37304;52.216;6.874;2022-09-29T10:23:32;7.97;;;6.40;;
51228;SDS011;37304;52.216;6.874;2022-09-29T10:28:52;14.43;;;6.50;;
51228;SDS011;37304;52.216;6.874;2022-09-29T10:33:57;6.75;;;5.35;;
51228;SDS011;37304;52.216;6.874;2022-09-29T10:38:59;9.18;;;6.80;;
51228;SDS011;37304;52.216;6.874;2022-09-29T10:44:13;8.77;;;5.60;;
51228;SDS011;37304;52.216;6.874;2022-09-29T10:49:24;9.30;;;5.85;;
51228;SDS011;37304;52.216;6.874;2022-09-29T10:54:31;10.43;;;5.80;;
51228;SDS011;37304;52.216;6.874;2022-09-29T10:59:34;6.72;;;4.65;;
51228;SDS011;37304;52.216;6.874;2022-09-29T11:04:34;6.90;;;4.43;;
51228;SDS011;37304;52.216;6.874;2022-09-29T11:09:42;6.20;;;4.22;;
51228;SDS011;37304;52.216;6.874;2022-09-29T11:14:44;5.63;;;3.60;;
51228;SDS011;37304;52.216;6.874;2022-09-29T11:19:44;5.07;;;3.00;;
51228;SDS011;37304;52.216;6.874;2022-09-29T11:40:36;5.78;;;4.25;;
51228;SDS011;37304;52.216;6.874;2022-09-29T11:51:31;5.93;;;4.15;;
51228;SDS011;37304;52.216;6.874;2022-09-29T12:07:27;4.38;;;3.58;;
51228;SDS011;37304;52.216;6.874;2022-09-29T12:13:05;4.05;;;3.28;;
51228;SDS011;37304;52.216;6.874;2022-09-29T12:18:39;4.40;;;2.80;;
51228;SDS011;37304;52.216;6.874;2022-09-29T12:23:51;3.83;;;3.08;;
51228;SDS011;37304;52.216;6.874;2022-09-29T12:34:01;3.45;;;2.85;;
51228;SDS011;37304;52.216;6.874;2022-09-29T12:39:21;5.55;;;3.33;;
51228;SDS011;37304;52.216;6.874;2022-09-29T12:44:36;4.95;;;3.15;;
51228;SDS011;37304;52.216;6.874;2022-09-29T12:55:16;6.22;;;3.40;;
51228;SDS011;37304;52.216;6.874;2022-09-29T13:00:24;5.53;;;2.88;;
51228;SDS011;37304;52.216;6.874;2022-09-29T13:21:23;3.55;;;2.70;;
51228;SDS011;37304;52.216;6.874;2022-09-29T13:26:56;3.25;;;2.75;;
51228;SDS011;37304;52.216;6.874;2022-09-29T13:32:11;3.97;;;2.30;;
51228;SDS011;37304;52.216;6.874;2022-09-29T13:47:33;2.97;;;2.40;;
51228;SDS011;37304;52.216;6.874;2022-09-29T13:52:36;2.73;;;2.00;;
51228;SDS011;37304;52.216;6.874;2022-09-29T13:57:40;4.07;;;2.28;;
51228;SDS011;37304;52.216;6.874;2022-09-29T14:03:00;3.97;;;2.42;;
51228;SDS011;37304;52.216;6.874;2022-09-29T14:08:19;3.08;;;2.15;;
51228;SDS011;37304;52.216;6.874;2022-09-29T14:13:26;3.08;;;1.85;;
51228;SDS011;37304;52.216;6.874;2022-09-29T14:28:44;2.85;;;2.17;;
51228;SDS011;37304;52.216;6.874;2022-09-29T14:33:46;2.10;;;1.40;;
51228;SDS011;37304;52.216;6.874;2022-09-29T14:38:49;2.95;;;2.13;;
51228;SDS011;37304;52.216;6.874;2022-09-29T15:00:56;3.65;;;2.00;;
51228;SDS011;37304;52.216;6.874;2022-09-29T15:05:43;2.78;;;1.98;;
51228;SDS011;37304;52.216;6.874;2022-09-29T15:10:43;3.63;;;2.23;;
51228;SDS011;37304;52.216;6.874;2022-09-29T15:15:44;3.63;;;2.40;;
51228;SDS011;37304;52.216;6.874;2022-09-29T15:20:53;3.65;;;2.25;;
51228;SDS011;37304;52.216;6.874;2022-09-29T15:25:59;4.20;;;2.80;;
51228;SDS011;37304;52.216;6.874;2022-09-29T15:31:03;4.70;;;2.72;;
51228;SDS011;37304;52.216;6.874;2022-09-29T15:36:07;4.10;;;2.60;;
51228;SDS011;37304;52.216;6.874;2022-09-29T15:41:20;7.38;;;3.22;;
51228;SDS011;37304;52.216;6.874;2022-09-29T15:46:33;3.35;;;2.42;;
51228;SDS011;37304;52.216;6.874;2022-09-29T15:51:35;3.78;;;2.83;;
51228;SDS011;37304;52.216;6.874;2022-09-29T15:56:37;3.22;;;2.17;;
51228;SDS011;37304;52.216;6.874;2022-09-29T16:02:00;2.97;;;2.72;;
51228;SDS011;37304;52.216;6.874;2022-09-29T16:07:04;3.35;;;2.20;;
51228;SDS011;37304;52.216;6.874;2022-09-29T16:12:05;4.32;;;2.30;;
51228;SDS011;37304;52.216;6.874;2022-09-29T16:17:06;3.03;;;2.50;;
51228;SDS011;37304;52.216;6.874;2022-09-29T16:22:13;3.72;;;2.10;;
51228;SDS011;37304;52.216;6.874;2022-09-29T16:27:40;4.53;;;2.50;;
51228;SDS011;37304;52.216;6.874;2022-09-29T16:32:51;7.05;;;2.70;;
51228;SDS011;37304;52.216;6.874;2022-09-29T16:37:53;3.22;;;2.30;;
51228;SDS011;37304;52.216;6.874;2022-09-29T16:42:54;3.60;;;2.47;;
51228;SDS011;37304;52.216;6.874;2022-09-29T16:47:56;3.38;;;2.55;;
51228;SDS011;37304;52.216;6.874;2022-09-29T16:52:57;3.22;;;2.70;;
51228;SDS011;37304;52.216;6.874;2022-09-29T17:03:03;6.15;;;3.25;;
51228;SDS011;37304;52.216;6.874;2022-09-29T17:08:04;3.60;;;3.05;;
51228;SDS011;37304;52.216;6.874;2022-09-29T17:13:17;4.72;;;3.22;;
51228;SDS011;37304;52.216;6.874;2022-09-29T17:18:19;6.45;;;3.63;;
51228;SDS011;37304;52.216;6.874;2022-09-29T17:23:22;6.32;;;3.22;;
51228;SDS011;37304;52.216;6.874;2022-09-29T17:28:22;5.20;;;3.57;;
51228;SDS011;37304;52.216;6.874;2022-09-29T17:33:23;5.47;;;3.45;;
51228;SDS011;37304;52.216;6.874;2022-09-29T17:38:25;5.88;;;3.85;;
51228;SDS011;37304;52.216;6.874;2022-09-29T17:43:26;6.82;;;3.83;;
51228;SDS011;37304;52.216;6.874;2022-09-29T17:48:27;8.02;;;4.38;;
51228;SDS011;37304;52.216;6.874;2022-09-29T17:53:29;8.27;;;4.30;;
51228;SDS011;37304;52.216;6.874;2022-09-29T17:58:31;5.18;;;3.58;;
51228;SDS011;37304;52.216;6.874;2022-09-29T18:03:32;5.90;;;3.73;;
51228;SDS011;37304;52.216;6.874;2022-09-29T18:08:34;7.22;;;4.28;;
51228;SDS011;37304;52.216;6.874;2022-09-29T18:13:34;4.20;;;3.43;;
51228;SDS011;37304;52.216;6.874;2022-09-29T18:18:34;11.93;;;4.23;;
51228;SDS011;37304;52.216;6.874;2022-09-29T18:23:35;8.00;;;4.95;;
51228;SDS011;37304;52.216;6.874;2022-09-29T18:28:36;6.72;;;4.55;;
51228;SDS011;37304;52.216;6.874;2022-09-29T18:33:36;7.93;;;4.90;;
51228;SDS011;37304;52.216;6.874;2022-09-29T18:38:37;7.17;;;5.10;;
51228;SDS011;37304;52.216;6.874;2022-09-29T18:43:37;7.30;;;4.83;;
51228;SDS011;37304;52.216;6.874;2022-09-29T18:48:37;8.63;;;5.30;;
51228;SDS011;37304;52.216;6.874;2022-09-29T18:53:38;9.33;;;5.33;;
51228;SDS011;37304;52.216;6.874;2022-09-29T18:58:40;11.32;;;5.95;;
51228;SDS011;37304;52.216;6.874;2022-09-29T19:03:40;9.77;;;5.38;;
51228;SDS011;37304;52.216;6.874;2022-09-29T19:08:42;9.73;;;6.15;;
51228;SDS011;37304;52.216;6.874;2022-09-29T19:13:43;9.73;;;5.82;;
51228;SDS011;37304;52.216;6.874;2022-09-29T19:18:43;9.53;;;5.80;;
51228;SDS011;37304;52.216;6.874;2022-09-29T19:23:44;13.63;;;7.70;;
51228;SDS011;37304;52.216;6.874;2022-09-29T19:28:47;14.07;;;6.90;;
51228;SDS011;37304;52.216;6.874;2022-09-29T19:33:49;12.10;;;7.18;;
51228;SDS011;37304;52.216;6.874;2022-09-29T19:38:50;15.32;;;7.45;;
51228;SDS011;37304;52.216;6.874;2022-09-29T19:43:50;12.80;;;6.97;;
51228;SDS011;37304;52.216;6.874;2022-09-29T19:48:51;11.03;;;6.67;;
51228;SDS011;37304;52.216;6.874;2022-09-29T19:53:51;11.43;;;5.60;;
51228;SDS011;37304;52.216;6.874;2022-09-29T19:59:10;10.68;;;7.15;;
51228;SDS011;37304;52.216;6.874;2022-09-29T20:04:13;12.45;;;8.23;;
51228;SDS011;37304;52.216;6.874;2022-09-29T20:14:15;18.40;;;9.75;;
51228;SDS011;37304;52.216;6.874;2022-09-29T20:19:19;26.13;;;11.35;;
51228;SDS011;37304;52.216;6.874;2022-09-29T20:24:21;20.25;;;11.90;;
51228;SDS011;37304;52.216;6.874;2022-09-29T20:29:26;20.17;;;11.73;;
51228;SDS011;37304;52.216;6.874;2022-09-29T20:34:28;21.92;;;13.02;;
51228;SDS011;37304;52.216;6.874;2022-09-29T20:44:30;21.70;;;11.65;;
51228;SDS011;37304;52.216;6.874;2022-09-29T20:49:31;24.97;;;13.23;;
51228;SDS011;37304;52.216;6.874;2022-09-29T20:54:31;19.90;;;13.07;;
51228;SDS011;37304;52.216;6.874;2022-09-29T20:59:32;20.08;;;11.30;;
51228;SDS011;37304;52.216;6.874;2022-09-29T21:09:32;18.23;;;12.25;;
51228;SDS011;37304;52.216;6.874;2022-09-29T21:14:33;23.83;;;13.47;;
51228;SDS011;37304;52.216;6.874;2022-09-29T21:19:35;20.98;;;12.55;;
51228;SDS011;37304;52.216;6.874;2022-09-29T21:24:37;32.95;;;16.92;;
51228;SDS011;37304;52.216;6.874;2022-09-29T21:29:38;23.90;;;13.65;;
51228;SDS011;37304;52.216;6.874;2022-09-29T21:44:39;25.63;;;14.87;;
51228;SDS011;37304;52.216;6.874;2022-09-29T21:49:39;19.02;;;12.88;;
51228;SDS011;37304;52.216;6.874;2022-09-29T21:54:41;20.00;;;12.48;;
51228;SDS011;37304;52.216;6.874;2022-09-29T21:59:42;18.77;;;10.00;;
51228;SDS011;37304;52.216;6.874;2022-09-29T22:04:42;15.50;;;9.85;;
51228;SDS011;37304;52.216;6.874;2022-09-29T22:09:42;15.23;;;8.90;;
51228;SDS011;37304;52.216;6.874;2022-09-29T22:14:43;14.15;;;8.73;;
51228;SDS011;37304;52.216;6.874;2022-09-29T22:24:44;15.65;;;8.73;;
51228;SDS011;37304;52.216;6.874;2022-09-29T22:34:45;13.40;;;8.82;;
51228;SDS011;37304;52.216;6.874;2022-09-29T22:44:45;14.55;;;9.40;;
51228;SDS011;37304;52.216;6.874;2022-09-29T22:54:46;17.40;;;9.73;;
51228;SDS011;37304;52.216;6.874;2022-09-29T23:04:47;16.00;;;10.68;;
51228;SDS011;37304;52.216;6.874;2022-09-29T23:14:47;16.70;;;9.82;;
51228;SDS011;37304;52.216;6.874;2022-09-29T23:19:48;16.90;;;10.07;;
51228;SDS011;37304;52.216;6.874;2022-09-29T23:29:49;14.40;;;10.35;;
51228;SDS011;37304;52.216;6.874;2022-09-29T23:39:52;16.08;;;10.05;;
51228;SDS011;37304;52.216;6.874;2022-09-29T23:49:53;13.18;;;8.75;;
51228;SDS011;37304;52.216;6.874;2022-09-29T23:59:54;13.45;;;8.45;;
